sensor_id;sensor_type;location;lat;lon;timestamp;temperature;humidity
69715;HTU21D;56981;53.532;49.398;2022-12-15T00:00:12;-4.37;80.54
69715;HTU21D;56981;53.532;49.398;2022-12-15T00:03:03;-4.29;80.39
69715;HTU21D;56981;53.532;49.398;2022-12-15T00:05:48;-4.32;80.34
69715;HTU21D;56981;53.532;49.398;2022-12-15T00:08:32;-4.27;80.05
69715;HTU21D;56981;53.532;49.398;2022-12-15T00:11:16;-4.31;80.33
69715;HTU21D;56981;53.532;49.398;2022-12-15T00:14:00;-4.38;81.01
69715;HTU21D;56981;53.532;49.398;2022-12-15T00:16:45;-4.31;80.75
69715;HTU21D;56981;53.532;49.398;2022-12-15T00:19:29;-4.29;80.41
69715;HTU21D;56981;53.532;49.398;2022-12-15T00:22:18;-4.30;80.64
69715;HTU21D;56981;53.532;49.398;2022-12-15T00:25:02;-4.31;80.64
69715;HTU21D;56981;53.532;49.398;2022-12-15T00:27:47;-4.28;80.68
69715;HTU21D;56981;53.532;49.398;2022-12-15T00:30:34;-4.20;80.32
69715;HTU21D;56981;53.532;49.398;2022-12-15T00:33:19;-4.23;80.32
69715;HTU21D;56981;53.532;49.398;2022-12-15T00:36:03;-4.17;80.16
69715;HTU21D;56981;53.532;49.398;2022-12-15T00:38:48;-4.22;80.46
69715;HTU21D;56981;53.532;49.398;2022-12-15T00:41:16;-4.24;80.40
69715;HTU21D;56981;53.532;49.398;2022-12-15T00:43:46;-4.22;80.63
69715;HTU21D;56981;53.532;49.398;2022-12-15T00:46:12;-4.28;80.94
69715;HTU21D;56981;53.532;49.398;2022-12-15T00:48:57;-4.27;80.88
69715;HTU21D;56981;53.532;49.398;2022-12-15T00:51:23;-4.28;80.88
69715;HTU21D;56981;53.532;49.398;2022-12-15T00:54:08;-4.31;81.12
69715;HTU21D;56981;53.532;49.398;2022-12-15T00:56:53;-4.35;81.34
69715;HTU21D;56981;53.532;49.398;2022-12-15T00:59:37;-4.40;81.49
69715;HTU21D;56981;53.532;49.398;2022-12-15T01:02:22;-4.38;81.55
69715;HTU21D;56981;53.532;49.398;2022-12-15T01:05:06;-4.40;81.87
69715;HTU21D;56981;53.532;49.398;2022-12-15T01:07:51;-4.40;81.82
69715;HTU21D;56981;53.532;49.398;2022-12-15T01:10:35;-4.40;81.91
69715;HTU21D;56981;53.532;49.398;2022-12-15T01:13:19;-4.41;82.18
69715;HTU21D;56981;53.532;49.398;2022-12-15T01:16:10;-4.42;81.94
69715;HTU21D;56981;53.532;49.398;2022-12-15T01:18:54;-4.43;81.94
69715;HTU21D;56981;53.532;49.398;2022-12-15T01:21:39;-4.42;82.16
69715;HTU21D;56981;53.532;49.398;2022-12-15T01:24:05;-4.39;82.13
69715;HTU21D;56981;53.532;49.398;2022-12-15T01:26:31;-4.35;81.85
69715;HTU21D;56981;53.532;49.398;2022-12-15T01:28:57;-4.31;81.65
69715;HTU21D;56981;53.532;49.398;2022-12-15T01:31:23;-4.28;81.59
69715;HTU21D;56981;53.532;49.398;2022-12-15T01:33:52;-4.30;81.58
69715;HTU21D;56981;53.532;49.398;2022-12-15T01:36:19;-4.30;81.84
69715;HTU21D;56981;53.532;49.398;2022-12-15T01:38:45;-4.29;81.62
69715;HTU21D;56981;53.532;49.398;2022-12-15T01:41:11;-4.30;81.65
69715;HTU21D;56981;53.532;49.398;2022-12-15T01:43:39;-4.27;81.73
69715;HTU21D;56981;53.532;49.398;2022-12-15T01:46:16;-4.29;81.94
69715;HTU21D;56981;53.532;49.398;2022-12-15T01:51:43;-4.26;81.80
69715;HTU21D;56981;53.532;49.398;2022-12-15T01:54:16;-4.28;82.07
69715;HTU21D;56981;53.532;49.398;2022-12-15T01:56:49;-4.29;82.05
69715;HTU21D;56981;53.532;49.398;2022-12-15T01:59:33;-4.26;82.07
69715;HTU21D;56981;53.532;49.398;2022-12-15T02:02:01;-4.22;81.72
69715;HTU21D;56981;53.532;49.398;2022-12-15T02:04:29;-4.25;81.98
69715;HTU21D;56981;53.532;49.398;2022-12-15T02:06:55;-4.26;82.24
69715;HTU21D;56981;53.532;49.398;2022-12-15T02:09:23;-4.24;82.12
69715;HTU21D;56981;53.532;49.398;2022-12-15T02:11:57;-4.15;81.91
69715;HTU21D;56981;53.532;49.398;2022-12-15T02:14:40;-4.13;81.37
69715;HTU21D;56981;53.532;49.398;2022-12-15T02:17:26;-4.11;81.44
69715;HTU21D;56981;53.532;49.398;2022-12-15T02:22:58;-4.06;81.12
69715;HTU21D;56981;53.532;49.398;2022-12-15T02:31:00;-4.10;81.30
69715;HTU21D;56981;53.532;49.398;2022-12-15T02:34:14;-4.08;81.46
69715;HTU21D;56981;53.532;49.398;2022-12-15T02:36:46;-4.11;81.67
69715;HTU21D;56981;53.532;49.398;2022-12-15T02:39:14;-4.17;81.94
69715;HTU21D;56981;53.532;49.398;2022-12-15T02:41:45;-4.21;82.20
69715;HTU21D;56981;53.532;49.398;2022-12-15T02:44:28;-4.16;82.03
69715;HTU21D;56981;53.532;49.398;2022-12-15T02:47:09;-4.17;82.38
69715;HTU21D;56981;53.532;49.398;2022-12-15T02:50:28;-4.15;81.99
69715;HTU21D;56981;53.532;49.398;2022-12-15T02:55:59;-4.12;82.07
69715;HTU21D;56981;53.532;49.398;2022-12-15T03:01:28;-4.10;81.93
69715;HTU21D;56981;53.532;49.398;2022-12-15T03:03:57;-4.15;81.59
69715;HTU21D;56981;53.532;49.398;2022-12-15T03:06:26;-4.17;81.59
69715;HTU21D;56981;53.532;49.398;2022-12-15T03:08:53;-4.15;82.03
69715;HTU21D;56981;53.532;49.398;2022-12-15T03:11:19;-4.19;82.04
69715;HTU21D;56981;53.532;49.398;2022-12-15T03:13:45;-4.29;82.17
69715;HTU21D;56981;53.532;49.398;2022-12-15T03:16:11;-4.37;82.65
69715;HTU21D;56981;53.532;49.398;2022-12-15T03:18:37;-4.36;82.96
69715;HTU21D;56981;53.532;49.398;2022-12-15T03:21:03;-4.29;82.81
69715;HTU21D;56981;53.532;49.398;2022-12-15T03:23:29;-4.22;82.46
69715;HTU21D;56981;53.532;49.398;2022-12-15T03:25:55;-4.19;82.11
69715;HTU21D;56981;53.532;49.398;2022-12-15T03:28:22;-4.19;82.26
69715;HTU21D;56981;53.532;49.398;2022-12-15T03:30:48;-4.17;82.49
69715;HTU21D;56981;53.532;49.398;2022-12-15T03:33:17;-4.13;82.33
69715;HTU21D;56981;53.532;49.398;2022-12-15T03:35:43;-4.09;82.26
69715;HTU21D;56981;53.532;49.398;2022-12-15T03:38:09;-4.08;82.05
69715;HTU21D;56981;53.532;49.398;2022-12-15T03:40:35;-4.10;82.02
69715;HTU21D;56981;53.532;49.398;2022-12-15T03:43:01;-4.12;82.07
69715;HTU21D;56981;53.532;49.398;2022-12-15T03:45:27;-4.08;81.94
69715;HTU21D;56981;53.532;49.398;2022-12-15T03:47:55;-4.09;82.13
69715;HTU21D;56981;53.532;49.398;2022-12-15T03:50:23;-4.05;82.47
69715;HTU21D;56981;53.532;49.398;2022-12-15T03:52:51;-4.00;82.03
69715;HTU21D;56981;53.532;49.398;2022-12-15T03:55:19;-4.05;82.46
69715;HTU21D;56981;53.532;49.398;2022-12-15T03:57:45;-4.01;82.39
69715;HTU21D;56981;53.532;49.398;2022-12-15T04:00:13;-4.06;82.36
69715;HTU21D;56981;53.532;49.398;2022-12-15T04:02:44;-4.13;82.26
69715;HTU21D;56981;53.532;49.398;2022-12-15T04:05:30;-4.23;82.49
69715;HTU21D;56981;53.532;49.398;2022-12-15T04:07:58;-4.22;82.68
69715;HTU21D;56981;53.532;49.398;2022-12-15T04:10:27;-4.17;82.78
69715;HTU21D;56981;53.532;49.398;2022-12-15T04:13:11;-4.17;82.56
69715;HTU21D;56981;53.532;49.398;2022-12-15T04:15:39;-4.10;82.69
69715;HTU21D;56981;53.532;49.398;2022-12-15T04:18:07;-4.09;82.61
69715;HTU21D;56981;53.532;49.398;2022-12-15T04:20:34;-4.10;82.55
69715;HTU21D;56981;53.532;49.398;2022-12-15T04:23:01;-4.09;82.87
69715;HTU21D;56981;53.532;49.398;2022-12-15T04:25:27;-4.07;82.97
69715;HTU21D;56981;53.532;49.398;2022-12-15T04:28:11;-4.06;83.08
69715;HTU21D;56981;53.532;49.398;2022-12-15T04:31:10;-4.04;83.25
69715;HTU21D;56981;53.532;49.398;2022-12-15T04:33:59;-4.05;83.61
69715;HTU21D;56981;53.532;49.398;2022-12-15T04:36:46;-3.97;83.41
69715;HTU21D;56981;53.532;49.398;2022-12-15T04:39:34;-3.92;83.27
69715;HTU21D;56981;53.532;49.398;2022-12-15T04:42:19;-3.93;83.28
69715;HTU21D;56981;53.532;49.398;2022-12-15T04:45:05;-3.98;83.47
69715;HTU21D;56981;53.532;49.398;2022-12-15T04:47:50;-3.94;83.23
69715;HTU21D;56981;53.532;49.398;2022-12-15T04:50:34;-3.97;83.82
69715;HTU21D;56981;53.532;49.398;2022-12-15T04:53:19;-3.90;83.38
69715;HTU21D;56981;53.532;49.398;2022-12-15T04:56:09;-3.87;82.65
69715;HTU21D;56981;53.532;49.398;2022-12-15T04:58:53;-3.84;82.83
69715;HTU21D;56981;53.532;49.398;2022-12-15T05:01:37;-3.86;82.39
69715;HTU21D;56981;53.532;49.398;2022-12-15T05:04:22;-3.81;82.30
69715;HTU21D;56981;53.532;49.398;2022-12-15T05:07:06;-3.76;82.20
69715;HTU21D;56981;53.532;49.398;2022-12-15T05:09:51;-3.75;82.21
69715;HTU21D;56981;53.532;49.398;2022-12-15T05:12:35;-3.76;81.91
69715;HTU21D;56981;53.532;49.398;2022-12-15T05:15:19;-3.86;82.46
69715;HTU21D;56981;53.532;49.398;2022-12-15T05:18:04;-3.79;82.28
69715;HTU21D;56981;53.532;49.398;2022-12-15T05:20:48;-3.74;81.81
69715;HTU21D;56981;53.532;49.398;2022-12-15T05:23:32;-3.68;81.65
69715;HTU21D;56981;53.532;49.398;2022-12-15T05:26:17;-3.63;81.01
69715;HTU21D;56981;53.532;49.398;2022-12-15T05:29:01;-3.71;81.84
69715;HTU21D;56981;53.532;49.398;2022-12-15T05:31:45;-3.71;81.21
69715;HTU21D;56981;53.532;49.398;2022-12-15T05:34:19;-3.69;81.35
69715;HTU21D;56981;53.532;49.398;2022-12-15T05:36:46;-3.65;81.67
69715;HTU21D;56981;53.532;49.398;2022-12-15T05:39:15;-3.56;81.28
69715;HTU21D;56981;53.532;49.398;2022-12-15T05:41:43;-3.56;81.74
69715;HTU21D;56981;53.532;49.398;2022-12-15T05:44:12;-3.62;81.89
69715;HTU21D;56981;53.532;49.398;2022-12-15T05:46:38;-3.60;82.27
69715;HTU21D;56981;53.532;49.398;2022-12-15T05:49:06;-3.57;82.61
69715;HTU21D;56981;53.532;49.398;2022-12-15T05:51:33;-3.57;82.67
69715;HTU21D;56981;53.532;49.398;2022-12-15T05:54:01;-3.58;82.91
69715;HTU21D;56981;53.532;49.398;2022-12-15T05:56:27;-3.57;82.43
69715;HTU21D;56981;53.532;49.398;2022-12-15T05:58:55;-3.58;82.47
69715;HTU21D;56981;53.532;49.398;2022-12-15T06:01:28;-3.51;82.60
69715;HTU21D;56981;53.532;49.398;2022-12-15T06:04:12;-3.42;82.47
69715;HTU21D;56981;53.532;49.398;2022-12-15T06:06:39;-3.38;81.91
69715;HTU21D;56981;53.532;49.398;2022-12-15T06:09:06;-3.30;81.68
69715;HTU21D;56981;53.532;49.398;2022-12-15T06:11:32;-3.25;81.43
69715;HTU21D;56981;53.532;49.398;2022-12-15T06:13:58;-3.23;81.11
69715;HTU21D;56981;53.532;49.398;2022-12-15T06:16:25;-3.20;81.23
69715;HTU21D;56981;53.532;49.398;2022-12-15T06:18:55;-3.11;80.90
69715;HTU21D;56981;53.532;49.398;2022-12-15T06:21:24;-3.06;80.67
69715;HTU21D;56981;53.532;49.398;2022-12-15T06:23:51;-2.93;80.40
69715;HTU21D;56981;53.532;49.398;2022-12-15T06:26:25;-2.88;80.40
69715;HTU21D;56981;53.532;49.398;2022-12-15T06:28:54;-2.96;80.32
69715;HTU21D;56981;53.532;49.398;2022-12-15T06:31:21;-3.10;81.03
69715;HTU21D;56981;53.532;49.398;2022-12-15T06:33:51;-3.09;81.09
69715;HTU21D;56981;53.532;49.398;2022-12-15T06:36:20;-3.05;80.98
69715;HTU21D;56981;53.532;49.398;2022-12-15T06:38:49;-3.05;81.33
69715;HTU21D;56981;53.532;49.398;2022-12-15T06:41:17;-2.98;81.28
69715;HTU21D;56981;53.532;49.398;2022-12-15T06:43:53;-2.96;80.95
69715;HTU21D;56981;53.532;49.398;2022-12-15T06:46:23;-2.94;80.95
69715;HTU21D;56981;53.532;49.398;2022-12-15T06:48:50;-2.94;80.83
69715;HTU21D;56981;53.532;49.398;2022-12-15T06:51:16;-2.75;80.66
69715;HTU21D;56981;53.532;49.398;2022-12-15T06:53:43;-2.81;80.08
69715;HTU21D;56981;53.532;49.398;2022-12-15T06:56:25;-2.77;80.42
69715;HTU21D;56981;53.532;49.398;2022-12-15T06:58:52;-2.69;80.30
69715;HTU21D;56981;53.532;49.398;2022-12-15T07:01:21;-2.66;79.86
69715;HTU21D;56981;53.532;49.398;2022-12-15T07:03:48;-2.66;80.04
69715;HTU21D;56981;53.532;49.398;2022-12-15T07:06:15;-2.68;79.92
69715;HTU21D;56981;53.532;49.398;2022-12-15T07:08:43;-2.71;79.85
69715;HTU21D;56981;53.532;49.398;2022-12-15T07:11:11;-2.79;80.04
69715;HTU21D;56981;53.532;49.398;2022-12-15T07:13:38;-2.72;80.90
69715;HTU21D;56981;53.532;49.398;2022-12-15T07:16:05;-2.54;80.11
69715;HTU21D;56981;53.532;49.398;2022-12-15T07:18:32;-2.42;79.09
69715;HTU21D;56981;53.532;49.398;2022-12-15T07:21:03;-2.37;78.85
69715;HTU21D;56981;53.532;49.398;2022-12-15T07:23:30;-2.51;79.20
69715;HTU21D;56981;53.532;49.398;2022-12-15T07:25:56;-2.60;79.70
69715;HTU21D;56981;53.532;49.398;2022-12-15T07:28:22;-2.50;79.56
69715;HTU21D;56981;53.532;49.398;2022-12-15T07:30:48;-2.50;79.13
69715;HTU21D;56981;53.532;49.398;2022-12-15T07:33:15;-2.63;79.87
69715;HTU21D;56981;53.532;49.398;2022-12-15T07:35:41;-2.68;80.60
69715;HTU21D;56981;53.532;49.398;2022-12-15T07:38:07;-2.57;80.33
69715;HTU21D;56981;53.532;49.398;2022-12-15T07:40:34;-2.44;79.56
69715;HTU21D;56981;53.532;49.398;2022-12-15T07:43:00;-2.29;78.81
69715;HTU21D;56981;53.532;49.398;2022-12-15T07:45:26;-2.23;78.63
69715;HTU21D;56981;53.532;49.398;2022-12-15T07:47:52;-2.14;78.63
69715;HTU21D;56981;53.532;49.398;2022-12-15T07:50:18;-2.04;77.88
69715;HTU21D;56981;53.532;49.398;2022-12-15T07:52:45;-2.01;77.88
69715;HTU21D;56981;53.532;49.398;2022-12-15T07:55:11;-1.95;77.39
69715;HTU21D;56981;53.532;49.398;2022-12-15T07:57:38;-1.84;77.13
69715;HTU21D;56981;53.532;49.398;2022-12-15T08:00:04;-1.76;76.87
69715;HTU21D;56981;53.532;49.398;2022-12-15T08:02:30;-1.83;76.60
69715;HTU21D;56981;53.532;49.398;2022-12-15T08:04:57;-1.87;77.18
69715;HTU21D;56981;53.532;49.398;2022-12-15T08:07:22;-1.87;77.35
69715;HTU21D;56981;53.532;49.398;2022-12-15T08:09:49;-1.83;77.26
69715;HTU21D;56981;53.532;49.398;2022-12-15T08:12:15;-1.94;77.45
69715;HTU21D;56981;53.532;49.398;2022-12-15T08:14:41;-1.97;77.89
69715;HTU21D;56981;53.532;49.398;2022-12-15T08:17:07;-2.02;78.24
69715;HTU21D;56981;53.532;49.398;2022-12-15T08:19:33;-2.01;77.74
69715;HTU21D;56981;53.532;49.398;2022-12-15T08:21:59;-2.04;78.60
69715;HTU21D;56981;53.532;49.398;2022-12-15T08:24:25;-1.80;78.02
69715;HTU21D;56981;53.532;49.398;2022-12-15T08:26:51;-1.76;76.94
69715;HTU21D;56981;53.532;49.398;2022-12-15T08:29:18;-1.76;76.66
69715;HTU21D;56981;53.532;49.398;2022-12-15T08:31:44;-1.87;77.42
69715;HTU21D;56981;53.532;49.398;2022-12-15T08:34:11;-1.73;76.76
69715;HTU21D;56981;53.532;49.398;2022-12-15T08:36:37;-1.74;76.57
69715;HTU21D;56981;53.532;49.398;2022-12-15T08:39:04;-1.70;77.05
69715;HTU21D;56981;53.532;49.398;2022-12-15T08:41:31;-1.67;76.77
69715;HTU21D;56981;53.532;49.398;2022-12-15T08:43:59;-1.58;76.48
69715;HTU21D;56981;53.532;49.398;2022-12-15T08:46:28;-1.58;76.31
69715;HTU21D;56981;53.532;49.398;2022-12-15T08:48:55;-1.48;75.79
69715;HTU21D;56981;53.532;49.398;2022-12-15T08:51:23;-1.38;75.39
69715;HTU21D;56981;53.532;49.398;2022-12-15T08:53:51;-1.47;75.73
69715;HTU21D;56981;53.532;49.398;2022-12-15T08:56:20;-1.44;75.85
69715;HTU21D;56981;53.532;49.398;2022-12-15T08:58:47;-1.48;76.48
69715;HTU21D;56981;53.532;49.398;2022-12-15T09:01:16;-1.38;75.84
69715;HTU21D;56981;53.532;49.398;2022-12-15T09:03:43;-1.32;75.44
69715;HTU21D;56981;53.532;49.398;2022-12-15T09:06:24;-1.34;75.19
69715;HTU21D;56981;53.532;49.398;2022-12-15T09:08:56;-1.30;75.07
69715;HTU21D;56981;53.532;49.398;2022-12-15T09:11:24;-1.54;76.17
69715;HTU21D;56981;53.532;49.398;2022-12-15T09:13:50;-1.60;76.76
69715;HTU21D;56981;53.532;49.398;2022-12-15T09:16:17;-1.56;76.83
69715;HTU21D;56981;53.532;49.398;2022-12-15T09:18:52;-1.48;76.06
69715;HTU21D;56981;53.532;49.398;2022-12-15T09:21:23;-1.43;76.19
69715;HTU21D;56981;53.532;49.398;2022-12-15T09:23:52;-1.35;76.23
69715;HTU21D;56981;53.532;49.398;2022-12-15T09:26:20;-1.29;75.30
69715;HTU21D;56981;53.532;49.398;2022-12-15T09:28:47;-1.21;75.47
69715;HTU21D;56981;53.532;49.398;2022-12-15T09:31:16;-1.26;74.98
69715;HTU21D;56981;53.532;49.398;2022-12-15T09:33:45;-1.30;75.63
69715;HTU21D;56981;53.532;49.398;2022-12-15T09:36:12;-1.34;75.43
69715;HTU21D;56981;53.532;49.398;2022-12-15T09:38:41;-1.42;75.78
69715;HTU21D;56981;53.532;49.398;2022-12-15T09:44:16;-1.45;76.12
69715;HTU21D;56981;53.532;49.398;2022-12-15T09:50:07;-1.56;76.61
69715;HTU21D;56981;53.532;49.398;2022-12-15T09:52:49;-1.64;77.47
69715;HTU21D;56981;53.532;49.398;2022-12-15T09:55:22;-1.54;77.19
69715;HTU21D;56981;53.532;49.398;2022-12-15T10:00:56;-1.54;77.16
69715;HTU21D;56981;53.532;49.398;2022-12-15T10:06:05;-1.29;75.88
69715;HTU21D;56981;53.532;49.398;2022-12-15T10:08:34;-1.21;75.51
69715;HTU21D;56981;53.532;49.398;2022-12-15T10:11:10;-1.24;75.70
69715;HTU21D;56981;53.532;49.398;2022-12-15T10:21:49;-1.25;75.63
69715;HTU21D;56981;53.532;49.398;2022-12-15T10:24:17;-1.29;75.40
69715;HTU21D;56981;53.532;49.398;2022-12-15T10:26:51;-1.43;76.70
69715;HTU21D;56981;53.532;49.398;2022-12-15T10:29:44;-1.56;77.12
69715;HTU21D;56981;53.532;49.398;2022-12-15T10:35:23;-1.67;77.63
69715;HTU21D;56981;53.532;49.398;2022-12-15T10:37:56;-1.71;77.49
69715;HTU21D;56981;53.532;49.398;2022-12-15T10:43:21;-1.64;77.08
69715;HTU21D;56981;53.532;49.398;2022-12-15T10:45:48;-1.49;76.92
69715;HTU21D;56981;53.532;49.398;2022-12-15T10:48:21;-1.43;76.52
69715;HTU21D;56981;53.532;49.398;2022-12-15T10:50:47;-1.43;76.78
69715;HTU21D;56981;53.532;49.398;2022-12-15T10:53:38;-1.41;76.22
69715;HTU21D;56981;53.532;49.398;2022-12-15T10:56:05;-1.44;76.39
69715;HTU21D;56981;53.532;49.398;2022-12-15T10:58:46;-1.34;76.33
69715;HTU21D;56981;53.532;49.398;2022-12-15T11:01:19;-1.42;76.31
69715;HTU21D;56981;53.532;49.398;2022-12-15T11:03:46;-1.55;77.11
69715;HTU21D;56981;53.532;49.398;2022-12-15T11:06:19;-1.40;76.46
69715;HTU21D;56981;53.532;49.398;2022-12-15T11:08:47;-1.30;75.77
69715;HTU21D;56981;53.532;49.398;2022-12-15T11:11:26;-1.34;75.79
69715;HTU21D;56981;53.532;49.398;2022-12-15T11:14:22;-1.54;76.79
69715;HTU21D;56981;53.532;49.398;2022-12-15T11:16:55;-1.44;76.57
69715;HTU21D;56981;53.532;49.398;2022-12-15T11:22:49;-1.50;76.80
69715;HTU21D;56981;53.532;49.398;2022-12-15T11:25:24;-1.55;77.13
69715;HTU21D;56981;53.532;49.398;2022-12-15T11:27:54;-1.54;77.54
69715;HTU21D;56981;53.532;49.398;2022-12-15T11:30:24;-1.53;78.09
69715;HTU21D;56981;53.532;49.398;2022-12-15T11:32:54;-1.46;76.86
69715;HTU21D;56981;53.532;49.398;2022-12-15T11:35:46;-1.46;77.02
69715;HTU21D;56981;53.532;49.398;2022-12-15T11:44:17;-2.03;78.89
69715;HTU21D;56981;53.532;49.398;2022-12-15T11:52:22;-2.24;79.88
69715;HTU21D;56981;53.532;49.398;2022-12-15T11:55:20;-2.30;79.91
69715;HTU21D;56981;53.532;49.398;2022-12-15T11:58:49;-2.32;80.20
69715;HTU21D;56981;53.532;49.398;2022-12-15T12:06:12;-2.56;81.05
69715;HTU21D;56981;53.532;49.398;2022-12-15T12:11:21;-2.58;81.65
69715;HTU21D;56981;53.532;49.398;2022-12-15T12:14:19;-2.62;81.37
69715;HTU21D;56981;53.532;49.398;2022-12-15T12:17:11;-2.74;81.61
69715;HTU21D;56981;53.532;49.398;2022-12-15T12:19:56;-2.83;82.26
69715;HTU21D;56981;53.532;49.398;2022-12-15T12:22:24;-2.76;82.29
69715;HTU21D;56981;53.532;49.398;2022-12-15T12:30:34;-2.74;81.94
69715;HTU21D;56981;53.532;49.398;2022-12-15T12:35:53;-2.89;82.31
69715;HTU21D;56981;53.532;49.398;2022-12-15T12:38:50;-3.02;82.96
69715;HTU21D;56981;53.532;49.398;2022-12-15T12:41:24;-3.04;83.09
69715;HTU21D;56981;53.532;49.398;2022-12-15T12:43:53;-3.04;83.00
69715;HTU21D;56981;53.532;49.398;2022-12-15T12:46:45;-3.05;82.94
69715;HTU21D;56981;53.532;49.398;2022-12-15T12:51:50;-3.17;83.42
69715;HTU21D;56981;53.532;49.398;2022-12-15T13:03:20;-3.16;83.71
69715;HTU21D;56981;53.532;49.398;2022-12-15T13:05:48;-3.23;83.57
69715;HTU21D;56981;53.532;49.398;2022-12-15T13:09:00;-3.21;83.74
69715;HTU21D;56981;53.532;49.398;2022-12-15T13:11:58;-3.19;83.59
69715;HTU21D;56981;53.532;49.398;2022-12-15T13:14:43;-3.17;83.16
69715;HTU21D;56981;53.532;49.398;2022-12-15T13:17:37;-3.22;83.30
69715;HTU21D;56981;53.532;49.398;2022-12-15T13:20:16;-3.31;83.84
69715;HTU21D;56981;53.532;49.398;2022-12-15T13:22:43;-3.38;84.36
69715;HTU21D;56981;53.532;49.398;2022-12-15T13:25:39;-3.39;84.41
69715;HTU21D;56981;53.532;49.398;2022-12-15T13:33:55;-3.50;84.87
69715;HTU21D;56981;53.532;49.398;2022-12-15T13:39:34;-3.60;85.46
69715;HTU21D;56981;53.532;49.398;2022-12-15T13:49:41;-3.53;84.99
69715;HTU21D;56981;53.532;49.398;2022-12-15T13:52:16;-3.51;84.92
69715;HTU21D;56981;53.532;49.398;2022-12-15T13:54:54;-3.45;84.73
69715;HTU21D;56981;53.532;49.398;2022-12-15T13:57:22;-3.46;84.63
69715;HTU21D;56981;53.532;49.398;2022-12-15T14:00:10;-3.48;84.75
69715;HTU21D;56981;53.532;49.398;2022-12-15T14:02:48;-3.53;84.71
69715;HTU21D;56981;53.532;49.398;2022-12-15T14:05:23;-3.58;85.02
69715;HTU21D;56981;53.532;49.398;2022-12-15T14:10:39;-3.48;84.68
69715;HTU21D;56981;53.532;49.398;2022-12-15T14:13:11;-3.40;84.11
69715;HTU21D;56981;53.532;49.398;2022-12-15T14:15:43;-3.39;83.94
69715;HTU21D;56981;53.532;49.398;2022-12-15T14:18:28;-3.41;84.11
69715;HTU21D;56981;53.532;49.398;2022-12-15T14:20:56;-3.39;83.87
69715;HTU21D;56981;53.532;49.398;2022-12-15T14:23:40;-3.45;84.04
69715;HTU21D;56981;53.532;49.398;2022-12-15T14:26:10;-3.36;84.15
69715;HTU21D;56981;53.532;49.398;2022-12-15T14:28:38;-3.38;83.64
69715;HTU21D;56981;53.532;49.398;2022-12-15T14:31:17;-3.33;83.78
69715;HTU21D;56981;53.532;49.398;2022-12-15T14:33:46;-3.22;83.05
69715;HTU21D;56981;53.532;49.398;2022-12-15T14:36:15;-3.26;83.34
69715;HTU21D;56981;53.532;49.398;2022-12-15T14:38:54;-3.37;83.66
69715;HTU21D;56981;53.532;49.398;2022-12-15T14:41:42;-3.33;83.71
69715;HTU21D;56981;53.532;49.398;2022-12-15T14:46:54;-3.31;83.13
69715;HTU21D;56981;53.532;49.398;2022-12-15T14:49:29;-3.22;83.16
69715;HTU21D;56981;53.532;49.398;2022-12-15T14:52:31;-3.22;82.86
69715;HTU21D;56981;53.532;49.398;2022-12-15T14:55:00;-3.19;82.73
69715;HTU21D;56981;53.532;49.398;2022-12-15T14:57:43;-3.19;82.71
69715;HTU21D;56981;53.532;49.398;2022-12-15T15:00:31;-3.18;82.77
69715;HTU21D;56981;53.532;49.398;2022-12-15T15:05:41;-3.15;82.42
69715;HTU21D;56981;53.532;49.398;2022-12-15T15:08:25;-3.11;82.56
69715;HTU21D;56981;53.532;49.398;2022-12-15T15:12:04;-3.11;82.26
69715;HTU21D;56981;53.532;49.398;2022-12-15T15:19:56;-3.12;82.57
69715;HTU21D;56981;53.532;49.398;2022-12-15T15:22:34;-3.05;82.23
69715;HTU21D;56981;53.532;49.398;2022-12-15T15:25:18;-3.13;82.19
69715;HTU21D;56981;53.532;49.398;2022-12-15T15:27:48;-3.07;82.48
69715;HTU21D;56981;53.532;49.398;2022-12-15T15:30:21;-3.10;82.48
69715;HTU21D;56981;53.532;49.398;2022-12-15T15:32:57;-3.07;81.92
69715;HTU21D;56981;53.532;49.398;2022-12-15T15:35:29;-3.07;81.99
69715;HTU21D;56981;53.532;49.398;2022-12-15T15:38:01;-3.07;82.36
69715;HTU21D;56981;53.532;49.398;2022-12-15T15:40:28;-3.07;81.97
69715;HTU21D;56981;53.532;49.398;2022-12-15T15:42:55;-3.08;81.85
69715;HTU21D;56981;53.532;49.398;2022-12-15T15:45:21;-3.16;82.13
69715;HTU21D;56981;53.532;49.398;2022-12-15T15:47:49;-3.19;82.69
69715;HTU21D;56981;53.532;49.398;2022-12-15T15:50:24;-3.15;82.33
69715;HTU21D;56981;53.532;49.398;2022-12-15T15:52:52;-3.11;81.84
69715;HTU21D;56981;53.532;49.398;2022-12-15T15:55:24;-3.18;82.27
69715;HTU21D;56981;53.532;49.398;2022-12-15T15:57:51;-3.25;82.53
69715;HTU21D;56981;53.532;49.398;2022-12-15T16:00:22;-3.18;82.78
69715;HTU21D;56981;53.532;49.398;2022-12-15T16:02:49;-3.11;82.33
69715;HTU21D;56981;53.532;49.398;2022-12-15T16:05:15;-3.09;82.03
69715;HTU21D;56981;53.532;49.398;2022-12-15T16:07:46;-3.11;81.99
69715;HTU21D;56981;53.532;49.398;2022-12-15T16:10:15;-3.17;82.23
69715;HTU21D;56981;53.532;49.398;2022-12-15T16:12:45;-3.26;82.50
69715;HTU21D;56981;53.532;49.398;2022-12-15T16:15:18;-3.36;83.13
69715;HTU21D;56981;53.532;49.398;2022-12-15T16:17:46;-3.40;83.61
69715;HTU21D;56981;53.532;49.398;2022-12-15T16:20:13;-3.41;83.91
69715;HTU21D;56981;53.532;49.398;2022-12-15T16:22:41;-3.39;83.70
69715;HTU21D;56981;53.532;49.398;2022-12-15T16:25:41;-3.31;83.78
69715;HTU21D;56981;53.532;49.398;2022-12-15T16:28:13;-3.26;83.67
69715;HTU21D;56981;53.532;49.398;2022-12-15T16:30:40;-3.21;83.26
69715;HTU21D;56981;53.532;49.398;2022-12-15T16:33:08;-3.19;82.70
69715;HTU21D;56981;53.532;49.398;2022-12-15T16:35:38;-3.33;82.81
69715;HTU21D;56981;53.532;49.398;2022-12-15T16:38:29;-3.39;83.41
69715;HTU21D;56981;53.532;49.398;2022-12-15T16:41:04;-3.43;83.78
69715;HTU21D;56981;53.532;49.398;2022-12-15T16:43:34;-3.39;83.81
69715;HTU21D;56981;53.532;49.398;2022-12-15T16:46:00;-3.32;83.55
69715;HTU21D;56981;53.532;49.398;2022-12-15T16:48:27;-3.30;83.23
69715;HTU21D;56981;53.532;49.398;2022-12-15T16:50:57;-3.23;82.91
69715;HTU21D;56981;53.532;49.398;2022-12-15T16:53:36;-3.16;82.62
69715;HTU21D;56981;53.532;49.398;2022-12-15T16:56:09;-3.10;82.44
69715;HTU21D;56981;53.532;49.398;2022-12-15T16:58:41;-3.11;82.31
69715;HTU21D;56981;53.532;49.398;2022-12-15T17:01:09;-3.11;82.27
69715;HTU21D;56981;53.532;49.398;2022-12-15T17:03:36;-3.18;82.42
69715;HTU21D;56981;53.532;49.398;2022-12-15T17:06:05;-3.18;82.71
69715;HTU21D;56981;53.532;49.398;2022-12-15T17:08:42;-3.17;82.67
69715;HTU21D;56981;53.532;49.398;2022-12-15T17:11:21;-3.26;83.29
69715;HTU21D;56981;53.532;49.398;2022-12-15T17:13:50;-3.21;83.41
69715;HTU21D;56981;53.532;49.398;2022-12-15T17:16:20;-3.26;83.26
69715;HTU21D;56981;53.532;49.398;2022-12-15T17:18:48;-3.25;83.36
69715;HTU21D;56981;53.532;49.398;2022-12-15T17:21:17;-3.26;83.15
69715;HTU21D;56981;53.532;49.398;2022-12-15T17:23:47;-3.26;83.42
69715;HTU21D;56981;53.532;49.398;2022-12-15T17:26:24;-3.31;83.39
69715;HTU21D;56981;53.532;49.398;2022-12-15T17:28:51;-3.37;83.93
69715;HTU21D;56981;53.532;49.398;2022-12-15T17:31:21;-3.32;83.68
69715;HTU21D;56981;53.532;49.398;2022-12-15T17:33:48;-3.30;83.83
69715;HTU21D;56981;53.532;49.398;2022-12-15T17:36:27;-3.28;83.50
69715;HTU21D;56981;53.532;49.398;2022-12-15T17:38:58;-3.26;83.68